createdAt,value
2023-03-11T00:02:25.000Z,35.43
2023-03-11T00:07:26.000Z,38.19
2023-03-11T00:12:25.000Z,40.28
2023-03-11T00:17:25.000Z,43.66
2023-03-11T00:22:25.000Z,46.99
2023-03-11T00:27:25.000Z,51.18
2023-03-11T00:32:25.000Z,49.51
2023-03-11T00:37:25.000Z,46.66
2023-03-11T00:42:26.000Z,49.95
2023-03-11T00:47:26.000Z,51.02
2023-03-11T00:52:26.000Z,53.06
2023-03-11T00:57:26.000Z,57.88
2023-03-11T01:02:24.000Z,58.89
2023-03-11T01:07:25.000Z,53.87
2023-03-11T01:12:25.000Z,52.72
2023-03-11T01:17:25.000Z,52.44
2023-03-11T01:22:25.000Z,51.7
2023-03-11T01:27:25.000Z,48.21
2023-03-11T01:32:25.000Z,49.12
2023-03-11T01:37:25.000Z,51.22
2023-03-11T01:42:25.000Z,55.72
2023-03-11T01:47:26.000Z,54.82
2023-03-11T01:52:26.000Z,55.74
2023-03-11T01:57:25.000Z,55.69
2023-03-11T02:02:26.000Z,57.07
2023-03-11T02:07:25.000Z,59.13
2023-03-11T02:12:25.000Z,58.56
2023-03-11T02:17:25.000Z,58.08
2023-03-11T02:22:25.000Z,56.93
2023-03-11T02:27:25.000Z,55.59
2023-03-11T02:32:25.000Z,54.33
2023-03-11T02:37:25.000Z,53.95
2023-03-11T02:42:26.000Z,52.4
2023-03-11T02:47:25.000Z,53.95
2023-03-11T02:52:25.000Z,52.09
2023-03-11T02:57:26.000Z,46.21
2023-03-11T03:02:25.000Z,39.92
2023-03-11T03:07:25.000Z,35.73
2023-03-11T03:12:25.000Z,29.14
2023-03-11T03:17:25.000Z,24.27
2023-03-11T03:22:25.000Z,18.31
2023-03-11T03:27:26.000Z,15.75
2023-03-11T03:32:25.000Z,13.94
2023-03-11T03:37:25.000Z,11.87
2023-03-11T03:42:25.000Z,11.64
2023-03-11T03:47:26.000Z,11.34
2023-03-11T03:52:25.000Z,11.65
2023-03-11T03:57:25.000Z,10.97
2023-03-11T04:02:25.000Z,10.34
2023-03-11T04:07:25.000Z,11.07
2023-03-11T04:12:25.000Z,10.4
2023-03-11T04:17:25.000Z,11.11
2023-03-11T04:22:25.000Z,11.47
2023-03-11T04:27:25.000Z,12.07
2023-03-11T04:32:25.000Z,11.9
2023-03-11T04:37:25.000Z,12.3
2023-03-11T04:42:25.000Z,12.63
2023-03-11T04:47:25.000Z,13.02
2023-03-11T04:52:25.000Z,13.63
2023-03-11T04:57:25.000Z,13.2
2023-03-11T05:02:26.000Z,13.57
2023-03-11T05:07:25.000Z,12.3
2023-03-11T05:12:25.000Z,11.93
2023-03-11T05:17:25.000Z,12.13
2023-03-11T05:22:26.000Z,11.98
2023-03-11T05:27:25.000Z,12.65
2023-03-11T05:32:25.000Z,12.71
2023-03-11T05:37:25.000Z,12.15
2023-03-11T05:42:25.000Z,12.71
2023-03-11T05:47:25.000Z,12.52
2023-03-11T05:52:25.000Z,12.67
2023-03-11T05:57:25.000Z,13.55
2023-03-11T06:02:25.000Z,12.64
2023-03-11T06:07:24.000Z,12.12
2023-03-11T06:12:25.000Z,11.99
2023-03-11T06:17:25.000Z,10.93
2023-03-11T06:22:25.000Z,11.21
2023-03-11T06:27:26.000Z,10.74
2023-03-11T06:32:25.000Z,10.71
2023-03-11T06:37:25.000Z,9.77
2023-03-11T06:42:25.000Z,9.81
2023-03-11T06:47:25.000Z,9.94
2023-03-11T06:52:25.000Z,10.56
2023-03-11T06:57:25.000Z,10.61
2023-03-11T07:02:24.000Z,10.94
2023-03-11T07:07:25.000Z,10.94
2023-03-11T07:12:25.000Z,10.19
2023-03-11T07:17:25.000Z,10.07
2023-03-11T07:22:25.000Z,10.43
2023-03-11T07:27:26.000Z,12.26
2023-03-11T07:32:25.000Z,10.61
2023-03-11T07:37:25.000Z,11.41
2023-03-11T07:42:25.000Z,12.44
2023-03-11T07:47:25.000Z,11.78
2023-03-11T07:52:26.000Z,12.17
2023-03-11T07:57:25.000Z,12.42
2023-03-11T08:02:25.000Z,11.71
2023-03-11T08:07:25.000Z,12.67
2023-03-11T08:12:26.000Z,12.65
2023-03-11T08:17:25.000Z,12.4
2023-03-11T08:22:25.000Z,12.18
2023-03-11T08:27:25.000Z,11.83
2023-03-11T08:32:26.000Z,12.89
2023-03-11T08:37:25.000Z,12.69
2023-03-11T08:42:26.000Z,13.62
2023-03-11T08:47:25.000Z,12.55
2023-03-11T08:52:25.000Z,13.14
2023-03-11T08:57:26.000Z,13.71
2023-03-11T09:02:25.000Z,11.27
2023-03-11T09:07:25.000Z,10.92
2023-03-11T09:12:26.000Z,11.89
2023-03-11T09:17:25.000Z,11.48
2023-03-11T09:22:26.000Z,12.27
2023-03-11T09:27:25.000Z,12.16
2023-03-11T09:32:25.000Z,11.47
2023-03-11T09:37:26.000Z,9.89
2023-03-11T09:42:26.000Z,11.13
2023-03-11T09:47:25.000Z,11
2023-03-11T09:52:26.000Z,11.27
2023-03-11T09:57:25.000Z,11.87
2023-03-11T10:02:25.000Z,10.81
2023-03-11T10:07:25.000Z,11.07
2023-03-11T10:12:25.000Z,11.57
2023-03-11T10:17:25.000Z,10.92
2023-03-11T10:22:25.000Z,11.06
2023-03-11T10:27:26.000Z,11.33
2023-03-11T10:32:25.000Z,11.01
2023-03-11T10:37:26.000Z,9.72
2023-03-11T10:42:25.000Z,10.76
2023-03-11T10:47:25.000Z,9.84
2023-03-11T10:52:25.000Z,9.99
2023-03-11T10:57:26.000Z,9.35
2023-03-11T11:02:25.000Z,9.98
2023-03-11T11:07:26.000Z,9.83
2023-03-11T11:12:25.000Z,9.13
2023-03-11T11:17:25.000Z,10.64
2023-03-11T11:22:26.000Z,10.41
2023-03-11T11:27:26.000Z,9.92
2023-03-11T11:32:25.000Z,8.9
2023-03-11T11:37:25.000Z,9.89
2023-03-11T11:42:26.000Z,10.43
2023-03-11T11:47:26.000Z,10.61
2023-03-11T11:52:25.000Z,11.71
2023-03-11T11:57:25.000Z,10.57
2023-03-11T12:02:25.000Z,8.77
2023-03-11T12:07:25.000Z,8.97
2023-03-11T12:12:25.000Z,9.42
2023-03-11T12:17:25.000Z,9.21
2023-03-11T12:22:25.000Z,9.7
2023-03-11T12:27:25.000Z,10.76
2023-03-11T12:32:25.000Z,9.89
2023-03-11T12:37:24.000Z,9.36
2023-03-11T12:42:25.000Z,8.69
2023-03-11T12:47:24.000Z,9.9
2023-03-11T12:52:26.000Z,8.92
2023-03-11T12:57:25.000Z,9.65
2023-03-11T13:02:25.000Z,8.85
2023-03-11T13:07:25.000Z,9.28
2023-03-11T13:12:25.000Z,9.65
2023-03-11T13:17:26.000Z,9.36
2023-03-11T13:22:25.000Z,8.67
2023-03-11T13:27:25.000Z,8.3
2023-03-11T13:32:25.000Z,8.81
2023-03-11T13:37:26.000Z,8.86
2023-03-11T13:42:25.000Z,9.51
2023-03-11T13:47:24.000Z,8.5
2023-03-11T13:52:25.000Z,8.02
2023-03-11T13:57:25.000Z,8.45
2023-03-11T14:02:26.000Z,9.4
2023-03-11T14:07:26.000Z,10.46
2023-03-11T14:12:26.000Z,9.58
2023-03-11T14:17:25.000Z,9.71
2023-03-11T14:22:26.000Z,9.79
2023-03-11T14:27:25.000Z,9.88
2023-03-11T14:32:26.000Z,9.87
2023-03-11T14:37:25.000Z,10.42
2023-03-11T14:42:26.000Z,10.05
2023-03-11T14:47:26.000Z,9.87
2023-03-11T14:52:25.000Z,9.57
2023-03-11T14:57:26.000Z,10.47
2023-03-11T15:02:26.000Z,12.05
2023-03-11T15:07:25.000Z,11.79
2023-03-11T15:12:25.000Z,10.92
2023-03-11T15:17:25.000Z,11.04
2023-03-11T15:22:26.000Z,11.26
2023-03-11T15:27:25.000Z,8.98
2023-03-11T15:32:25.000Z,10.95
2023-03-11T15:37:25.000Z,10.97
2023-03-11T15:42:25.000Z,10.39
2023-03-11T15:47:25.000Z,8.11
2023-03-11T15:52:26.000Z,9.14
2023-03-11T15:57:26.000Z,9.56
2023-03-11T16:02:26.000Z,9.44
2023-03-11T16:07:27.000Z,9.3
2023-03-11T16:12:26.000Z,9.25
2023-03-11T16:17:26.000Z,9.77
2023-03-11T16:22:25.000Z,10.6
2023-03-11T16:27:25.000Z,8.85
2023-03-11T16:32:25.000Z,10.17
2023-03-11T16:37:25.000Z,10.33
2023-03-11T16:42:25.000Z,11.27
2023-03-11T16:47:25.000Z,10.55
2023-03-11T16:52:26.000Z,10.95
2023-03-11T16:57:25.000Z,11.29
2023-03-11T17:02:25.000Z,9.92
2023-03-11T17:17:25.000Z,12.01
2023-03-11T17:22:25.000Z,11.33
2023-03-11T17:27:25.000Z,12.16
2023-03-11T17:32:25.000Z,12.25
2023-03-11T17:37:25.000Z,12.66
2023-03-11T17:42:25.000Z,12.31
2023-03-11T17:47:25.000Z,12.66
2023-03-11T17:52:25.000Z,11.05
2023-03-11T17:57:25.000Z,11.11
2023-03-11T18:02:25.000Z,12.68
2023-03-11T18:07:25.000Z,11.2
2023-03-11T18:12:25.000Z,11.87
2023-03-11T18:17:25.000Z,11.92
2023-03-11T18:22:25.000Z,11.28
2023-03-11T18:27:25.000Z,13.07
2023-03-11T18:32:25.000Z,13.02
2023-03-11T18:37:25.000Z,11.95
2023-03-11T18:42:25.000Z,12.83
2023-03-11T18:47:25.000Z,12.05
2023-03-11T18:52:25.000Z,12.06
2023-03-11T18:57:25.000Z,11.31
2023-03-11T19:02:24.000Z,12.51
2023-03-11T19:07:25.000Z,12.94
2023-03-11T19:12:25.000Z,13.36
2023-03-11T19:17:26.000Z,11.88
2023-03-11T19:22:26.000Z,13.05
2023-03-11T19:27:25.000Z,13.53
2023-03-11T19:32:25.000Z,13.37
2023-03-11T19:37:25.000Z,14.14
2023-03-11T19:42:25.000Z,12.12
2023-03-11T19:47:25.000Z,12.8
2023-03-11T19:52:25.000Z,11.95
2023-03-11T19:57:25.000Z,12.38
2023-03-11T20:02:25.000Z,13.28
2023-03-11T20:07:25.000Z,13.28
2023-03-11T20:12:24.000Z,12.46
2023-03-11T20:17:26.000Z,12.03
2023-03-11T20:22:25.000Z,13.11
2023-03-11T20:27:25.000Z,11.64
2023-03-11T20:32:25.000Z,11.87
2023-03-11T20:37:25.000Z,12.41
2023-03-11T20:42:25.000Z,12.2
2023-03-11T20:47:25.000Z,11.22
2023-03-11T20:52:25.000Z,11.06
2023-03-11T20:57:25.000Z,11.41
2023-03-11T21:02:26.000Z,11.72
2023-03-11T21:07:25.000Z,10.6
2023-03-11T21:12:25.000Z,11.06
2023-03-11T21:17:25.000Z,10.68
2023-03-11T21:22:25.000Z,12.25
2023-03-11T21:27:25.000Z,10.25
2023-03-11T21:32:25.000Z,10.14
2023-03-11T21:37:25.000Z,9.54
2023-03-11T21:42:26.000Z,10.08
2023-03-11T21:47:25.000Z,9.25
2023-03-11T21:52:25.000Z,8.71
2023-03-11T21:57:25.000Z,7.93
2023-03-11T22:02:25.000Z,6.82
2023-03-11T22:07:26.000Z,7.22
2023-03-11T22:12:25.000Z,6.52
2023-03-11T22:17:24.000Z,6.99
2023-03-11T22:22:24.000Z,6.42
2023-03-11T22:27:25.000Z,6.84
2023-03-11T22:32:25.000Z,6.26
2023-03-11T22:37:25.000Z,6.6
2023-03-11T22:42:25.000Z,6.84
2023-03-11T22:47:25.000Z,6.34
2023-03-11T22:52:25.000Z,6.26
2023-03-11T22:57:26.000Z,5.6
2023-03-11T23:02:26.000Z,6.01
2023-03-11T23:07:25.000Z,5.75
2023-03-11T23:12:25.000Z,6.53
2023-03-11T23:17:25.000Z,6.57
2023-03-11T23:22:26.000Z,7.3
2023-03-11T23:27:25.000Z,7.91
2023-03-11T23:32:26.000Z,8.31
2023-03-11T23:37:24.000Z,8.33
2023-03-11T23:42:25.000Z,9.39
2023-03-11T23:47:25.000Z,9.92
2023-03-11T23:52:25.000Z,10.21
2023-03-11T23:57:26.000Z,10.08
